Google Maps JavaScript API Example
Pilot Flight Report # 69709 Submitted by : AST332 on 2012-07-12
Date: 2012-07-12Aircraft: Cessna 182S Skylane
Flight No.: Not AvailableDistance (Nm): 132.85
Departure: FBMN - MaunDestination: FBSW - Shakawe
 TimeFuelWeightSpeeds  
Out (Taxi)1006Z192 lbs3244 lbs Flight RulesIFR
Off (Takeoff)1010Z 3243 lbs76 ktsFlight Level5700
On (Landing)1112Z 3148 lbs65 ktsVSTD-391 ft/min
In (Ramp)1113Z96 lbs3148 lbs ZFW3051 lbs
Flight1.00  -  1:0296 lbs  Pax0
Block1.12  -  1:0796 lbs  Cargo0
Departure WeatherFBMN 121006Z 18906KT 100SM SKC 26/9 A3009
Destination WeatherFBSW 121113Z 18000KT 100SM FEW016 16/13 A2991
Flight Comments